Time;durP1;ratioP1;P1;durP2;ratioP2;P2;SDS_P1;SDS_P2;PMS_P1;PMS_P2;Temp;Humidity;BMP_temperature;BMP_pressure;BME280_temperature;BME280_humidity;BME280_pressure;Samples;Min_cycle;Max_cycle;Signal;HPM_P1;HPM_P2
2023/03/26 00:00:47;;;;;;;1.95;1.25;;;;;;;4.33;100.00;99477.00;5021631;28;20022;-69
2023/03/26 00:03:15;;;;;;;2.33;1.10;;;;;;;4.29;100.00;99489.06;5021785;28;20026;-69
2023/03/26 00:05:41;;;;;;;1.35;1.10;;;;;;;4.42;100.00;99483.88;5020958;28;20084;-69
2023/03/26 00:08:07;;;;;;;1.35;1.20;;;;;;;4.47;100.00;99480.66;5025324;28;20038;-69
2023/03/26 00:10:38;;;;;;;1.40;1.20;;;;;;;4.33;100.00;99484.19;5025292;28;20029;-70
2023/03/26 00:13:05;;;;;;;1.67;1.27;;;;;;;4.33;100.00;99479.69;5024613;28;20052;-69
2023/03/26 00:15:32;;;;;;;2.58;1.38;;;;;;;4.26;100.00;99484.13;5025894;28;20036;-69
2023/03/26 00:17:59;;;;;;;2.35;1.27;;;;;;;4.03;100.00;99457.69;5025095;28;20034;-69
2023/03/26 00:20:26;;;;;;;1.17;1.08;;;;;;;4.13;100.00;99474.16;5026335;28;20050;-69
2023/03/26 00:22:52;;;;;;;1.63;1.25;;;;;;;3.96;100.00;99464.78;5008968;28;20033;-69
2023/03/26 00:25:19;;;;;;;1.65;1.30;;;;;;;4.29;100.00;99470.44;5022385;28;20062;-68
2023/03/26 00:27:44;;;;;;;3.63;1.30;;;;;;;3.91;100.00;99480.50;5024021;28;20028;-69
2023/03/26 00:30:11;;;;;;;2.25;1.27;;;;;;;4.02;100.00;99489.84;5023527;28;20464;-69
2023/03/26 00:32:36;;;;;;;2.67;1.17;;;;;;;4.16;100.00;99486.28;5022920;28;20040;-69
2023/03/26 00:35:03;;;;;;;2.60;1.40;;;;;;;4.03;100.00;99471.00;5024274;28;20033;-69
2023/03/26 00:37:29;;;;;;;1.30;1.20;;;;;;;4.32;100.00;99482.53;5023390;28;20080;-69
2023/03/26 00:40:03;;;;;;;2.03;1.17;;;;;;;4.02;100.00;99468.53;5022634;28;20465;-69
2023/03/26 00:42:29;;;;;;;1.20;1.10;;;;;;;4.17;100.00;99486.13;5022898;28;20029;-69
2023/03/26 00:44:56;;;;;;;2.42;1.50;;;;;;;4.09;100.00;99496.03;5023814;28;20432;-69
2023/03/26 00:47:27;;;;;;;1.35;1.08;;;;;;;4.27;100.00;99499.06;5021801;28;20030;-69
2023/03/26 00:49:53;;;;;;;1.88;1.10;;;;;;;4.34;100.00;99501.81;5031598;28;20033;-69
2023/03/26 00:52:22;;;;;;;1.52;1.13;;;;;;;4.38;100.00;99503.91;5033583;28;20034;-69
2023/03/26 00:54:51;;;;;;;1.45;1.20;;;;;;;4.33;100.00;99505.50;5017675;28;20396;-69
2023/03/26 00:57:20;;;;;;;1.95;1.20;;;;;;;4.19;100.00;99500.03;5005946;28;20033;-68
2023/03/26 00:59:46;;;;;;;1.63;1.05;;;;;;;4.20;100.00;99506.19;5022573;28;20108;-69
2023/03/26 01:02:15;;;;;;;1.83;1.10;;;;;;;4.23;100.00;99506.63;5004590;28;20033;-68
2023/03/26 01:04:44;;;;;;;2.67;1.33;;;;;;;4.18;100.00;99503.72;5021243;28;20444;-68
2023/03/26 01:07:15;;;;;;;1.95;1.00;;;;;;;4.04;100.00;99485.13;5021493;28;20034;-69
2023/03/26 01:09:48;;;;;;;2.03;1.40;;;;;;;4.02;100.00;99488.00;5022153;28;20030;-67
2023/03/26 01:12:17;;;;;;;1.88;1.30;;;;;;;4.05;100.00;99478.81;5021416;28;20025;-69
2023/03/26 01:14:45;;;;;;;1.88;1.20;;;;;;;4.29;100.00;99498.91;5004627;28;20038;-69
2023/03/26 01:17:11;;;;;;;3.55;1.17;;;;;;;4.20;100.00;99504.34;5022251;28;20040;-69
2023/03/26 01:19:46;;;;;;;1.50;1.20;;;;;;;3.76;100.00;99473.38;5020104;28;20029;-69
2023/03/26 01:22:18;;;;;;;1.20;1.10;;;;;;;4.11;100.00;99502.84;5020304;28;20132;-69
2023/03/26 01:24:47;;;;;;;1.13;1.02;;;;;;;3.96;100.00;99494.88;5025987;28;20053;-69
2023/03/26 01:27:26;;;;;;;1.95;1.00;;;;;;;3.99;100.00;99497.16;5023355;28;20152;-69
2023/03/26 01:30:04;;;;;;;1.10;1.00;;;;;;;3.74;100.00;99495.84;5024695;28;20430;-69
2023/03/26 01:32:49;;;;;;;2.10;1.35;;;;;;;3.81;100.00;99509.25;5041627;28;20048;-69
2023/03/26 01:35:18;;;;;;;2.97;1.23;;;;;;;4.04;100.00;99506.41;4991242;28;20666;-69
2023/03/26 01:38:09;;;;;;;1.58;1.33;;;;;;;4.02;100.00;99500.47;5042066;28;20037;-69
2023/03/26 01:40:42;;;;;;;1.95;1.40;;;;;;;4.12;100.00;99488.50;5041505;28;20025;-68
2023/03/26 01:43:23;;;;;;;1.70;1.30;;;;;;;3.86;100.00;99499.69;5041970;28;20059;-69
2023/03/26 01:45:50;;;;;;;1.45;1.30;;;;;;;4.02;100.00;99501.31;5041562;28;20056;-68
2023/03/26 01:48:16;;;;;;;1.52;1.40;;;;;;;3.78;100.00;99497.16;5025757;28;20025;-69
2023/03/26 01:50:41;;;;;;;1.73;1.27;;;;;;;3.87;100.00;99471.25;5035473;28;20021;-69
2023/03/26 01:53:09;;;;;;;1.55;1.23;;;;;;;3.79;100.00;99495.31;5053341;28;20025;-69
2023/03/26 01:55:48;;;;;;;1.52;0.98;;;;;;;3.61;100.00;99483.25;5026546;28;20037;-68
2023/03/26 01:58:35;;;;;;;1.80;1.25;;;;;;;3.90;100.00;99513.44;5037769;28;20036;-69
2023/03/26 02:01:18;;;;;;;2.08;1.05;;;;;;;3.81;100.00;99510.09;5043762;28;20044;-69
2023/03/26 02:03:58;;;;;;;2.25;1.30;;;;;;;3.83;100.00;99493.91;5040463;28;20392;-69
2023/03/26 02:06:36;;;;;;;1.30;1.10;;;;;;;4.03;100.00;99508.25;5039578;28;20042;-69
2023/03/26 02:09:07;;;;;;;2.20;1.27;;;;;;;4.07;100.00;99506.03;5040710;28;20029;-69
2023/03/26 02:11:35;;;;;;;2.03;1.10;;;;;;;4.00;100.00;99501.47;5042747;28;20045;-69
2023/03/26 02:14:04;;;;;;;1.55;1.17;;;;;;;3.84;100.00;99507.06;5022819;28;20484;-69
2023/03/26 02:16:29;;;;;;;2.08;1.38;;;;;;;4.18;100.00;99509.03;5041671;28;20384;-69
2023/03/26 02:18:55;;;;;;;2.03;1.20;;;;;;;3.79;100.00;99508.63;5023197;28;20036;-69
2023/03/26 02:21:24;;;;;;;1.48;0.93;;;;;;;3.66;100.00;99494.13;5024084;28;20025;-69
2023/03/26 02:24:01;;;;;;;2.30;1.10;;;;;;;3.90;100.00;99495.63;5042888;28;20460;-68
2023/03/26 02:26:29;;;;;;;2.08;1.30;;;;;;;3.63;100.00;99499.81;5023904;28;20546;-69
2023/03/26 02:28:56;;;;;;;1.60;1.10;;;;;;;3.75;100.00;99493.03;5025515;28;20056;-69
2023/03/26 02:31:25;;;;;;;1.70;1.10;;;;;;;4.10;100.00;99495.03;5042390;28;20029;-69
2023/03/26 02:33:51;;;;;;;1.42;1.02;;;;;;;3.99;100.00;99497.16;5009092;28;20025;-68
2023/03/26 02:36:20;;;;;;;1.75;1.15;;;;;;;4.19;100.00;99504.53;5042622;28;20089;-68
2023/03/26 02:38:46;;;;;;;2.00;1.10;;;;;;;4.03;100.00;99494.13;5042915;28;20045;-68
2023/03/26 02:41:11;;;;;;;2.08;1.20;;;;;;;4.28;100.00;99505.25;5042450;28;20032;-68
2023/03/26 02:43:37;;;;;;;1.80;1.27;;;;;;;4.16;100.00;99520.91;5041824;28;20045;-68
2023/03/26 02:46:02;;;;;;;1.55;1.17;;;;;;;4.08;100.00;99515.69;5041427;28;20026;-68
2023/03/26 02:48:28;;;;;;;1.23;1.00;;;;;;;3.65;100.00;99510.31;5005331;28;20034;-67
2023/03/26 02:50:53;;;;;;;2.15;1.27;;;;;;;3.67;100.00;99490.47;5013637;28;20207;-68
2023/03/26 02:53:28;;;;;;;2.22;1.20;;;;;;;4.01;100.00;99512.97;5010733;28;20034;-69
2023/03/26 02:55:58;;;;;;;1.45;1.13;;;;;;;4.13;100.00;99516.75;5016051;28;20546;-67
2023/03/26 02:58:25;;;;;;;3.30;1.63;;;;;;;3.77;100.00;99508.78;5039756;28;20463;-68
2023/03/26 03:00:56;;;;;;;2.35;1.30;;;;;;;3.64;100.00;99527.25;5037405;28;20032;-68
2023/03/26 03:03:25;;;;;;;1.52;1.10;;;;;;;4.00;100.00;99521.94;5021195;28;20026;-69
2023/03/26 03:05:52;;;;;;;2.47;1.40;;;;;;;3.95;100.00;99527.03;5039467;28;20032;-68
2023/03/26 03:08:19;;;;;;;1.92;1.13;;;;;;;3.69;100.00;99523.03;5038816;28;20034;-68
2023/03/26 03:11:00;;;;;;;2.00;1.30;;;;;;;3.84;100.00;99530.16;5020909;28;20033;-68
2023/03/26 03:13:26;;;;;;;1.73;0.98;;;;;;;3.33;100.00;99509.69;5020712;28;20052;-68
2023/03/26 03:15:51;;;;;;;2.47;1.40;;;;;;;3.69;100.00;99524.88;5038419;28;20053;-68
2023/03/26 03:18:17;;;;;;;1.33;1.10;;;;;;;3.66;100.00;99526.06;5040273;28;20048;-68
2023/03/26 03:20:43;;;;;;;1.60;1.20;;;;;;;3.77;100.00;99527.41;5024700;28;20024;-68
2023/03/26 03:23:09;;;;;;;1.40;1.30;;;;;;;3.72;100.00;99527.16;5027601;28;20463;-68
2023/03/26 03:25:37;;;;;;;1.33;1.20;;;;;;;3.54;100.00;99527.53;5026545;28;20053;-68
2023/03/26 03:28:03;;;;;;;1.42;1.00;;;;;;;3.59;100.00;99541.13;5026509;28;20037;-68
2023/03/26 03:30:28;;;;;;;1.60;1.08;;;;;;;3.85;100.00;99551.28;5044493;28;20093;-68
2023/03/26 03:32:57;;;;;;;1.38;1.27;;;;;;;3.94;100.00;99538.66;5043883;28;20068;-68
2023/03/26 03:35:23;;;;;;;2.15;1.10;;;;;;;3.71;100.00;99526.34;5044457;28;20025;-68
2023/03/26 03:37:48;;;;;;;1.40;1.30;;;;;;;3.66;100.00;99538.53;5010101;28;20057;-68
2023/03/26 03:40:13;;;;;;;1.60;1.15;;;;;;;3.73;100.00;99532.28;5025504;28;20111;-68
2023/03/26 03:42:39;;;;;;;1.65;1.25;;;;;;;3.58;100.00;99542.13;5009893;28;20038;-68
2023/03/26 03:45:05;;;;;;;1.73;1.20;;;;;;;3.60;100.00;99541.94;5043047;28;20501;-69
2023/03/26 03:47:31;;;;;;;2.25;1.20;;;;;;;3.29;100.00;99535.81;5025994;28;20381;-68
2023/03/26 03:49:58;;;;;;;1.50;1.30;;;;;;;3.64;100.00;99553.84;5043877;28;20036;-68
2023/03/26 03:52:25;;;;;;;4.85;1.35;;;;;;;3.15;100.00;99526.00;5025289;28;20029;-68
2023/03/26 03:54:51;;;;;;;1.90;1.15;;;;;;;3.65;100.00;99558.19;5043236;28;20025;-68
2023/03/26 03:57:17;;;;;;;2.60;1.45;;;;;;;3.74;100.00;99557.91;5043762;28;20040;-68
2023/03/26 03:59:43;;;;;;;2.38;1.30;;;;;;;3.61;100.00;99564.84;5026385;28;20025;-68
2023/03/26 04:02:09;;;;;;;2.67;1.30;;;;;;;3.78;100.00;99544.22;5026417;28;20021;-69
2023/03/26 04:04:36;;;;;;;1.83;1.33;;;;;;;3.22;100.00;99564.13;5010341;28;20034;-68
2023/03/26 04:07:03;;;;;;;1.65;1.20;;;;;;;3.52;100.00;99569.47;5010832;28;20030;-68
2023/03/26 04:09:28;;;;;;;1.98;1.30;;;;;;;3.70;100.00;99571.72;5009663;28;20045;-68
2023/03/26 04:11:53;;;;;;;1.48;0.98;;;;;;;3.87;100.00;99567.03;5024939;28;20476;-68
2023/03/26 04:14:19;;;;;;;2.20;1.40;;;;;;;3.63;100.00;99563.66;5008832;28;20068;-68
2023/03/26 04:16:44;;;;;;;1.80;1.27;;;;;;;3.72;100.00;99572.38;5024229;28;20121;-68
2023/03/26 04:19:10;;;;;;;1.85;1.27;;;;;;;3.44;100.00;99570.34;5042568;28;20025;-68
2023/03/26 04:21:36;;;;;;;1.30;1.20;;;;;;;3.55;100.00;99571.75;5008765;28;20032;-68
2023/03/26 04:24:04;;;;;;;2.63;1.30;;;;;;;3.46;100.00;99578.16;5024730;28;20039;-68
2023/03/26 04:26:30;;;;;;;1.17;1.08;;;;;;;3.41;100.00;99583.19;5040728;28;20109;-68
2023/03/26 04:28:59;;;;;;;2.65;1.40;;;;;;;3.30;100.00;99590.63;5040075;28;20033;-68
2023/03/26 04:31:30;;;;;;;1.73;1.23;;;;;;;3.35;100.00;99589.28;5042480;28;20113;-68
2023/03/26 04:34:04;;;;;;;1.52;1.13;;;;;;;3.12;100.00;99592.81;5042421;28;20034;-68
2023/03/26 04:36:30;;;;;;;2.03;1.20;;;;;;;3.15;100.00;99600.41;5024774;28;20025;-68
2023/03/26 04:39:04;;;;;;;1.38;1.13;;;;;;;3.40;100.00;99593.00;5024452;28;20363;-68
2023/03/26 04:41:31;;;;;;;1.63;1.13;;;;;;;3.46;100.00;99599.44;5023878;28;20017;-68
2023/03/26 04:43:56;;;;;;;1.50;1.20;;;;;;;3.39;100.00;99601.19;5024491;28;20258;-68
2023/03/26 04:46:22;;;;;;;2.20;1.30;;;;;;;3.48;100.00;99606.25;5007166;28;20112;-68
2023/03/26 04:48:52;;;;;;;1.20;1.10;;;;;;;3.53;100.00;99603.03;5042216;28;20077;-68
2023/03/26 04:51:23;;;;;;;1.67;1.05;;;;;;;3.28;100.00;99610.44;5025038;28;20044;-68
2023/03/26 04:53:57;;;;;;;1.65;1.08;;;;;;;3.27;100.00;99601.63;5042028;28;20061;-68
2023/03/26 04:56:44;;;;;;;3.03;1.23;;;;;;;3.05;100.00;99605.16;5041231;28;20025;-68
2023/03/26 04:59:14;;;;;;;1.58;1.30;;;;;;;2.99;100.00;99592.59;5040886;28;20246;-68
2023/03/26 05:01:40;;;;;;;1.73;1.13;;;;;;;3.01;100.00;99602.06;5041038;28;20040;-67
2023/03/26 05:04:06;;;;;;;2.58;1.10;;;;;;;3.10;100.00;99609.94;5023793;28;20048;-68
2023/03/26 05:06:33;;;;;;;1.50;1.08;;;;;;;3.12;100.00;99600.78;5041765;28;20033;-68
2023/03/26 05:09:00;;;;;;;1.85;1.08;;;;;;;3.04;100.00;99601.66;5041407;28;20021;-68
2023/03/26 05:11:26;;;;;;;2.40;1.38;;;;;;;2.90;100.00;99601.63;5041064;28;20116;-68
2023/03/26 05:13:52;;;;;;;1.50;1.23;;;;;;;3.00;100.00;99612.84;5023137;28;20032;-68
2023/03/26 05:16:17;;;;;;;1.63;1.13;;;;;;;3.11;100.00;99614.22;5006643;28;20041;-68
2023/03/26 05:18:42;;;;;;;3.00;1.27;;;;;;;3.02;100.00;99613.50;5021776;28;20167;-68
2023/03/26 05:21:08;;;;;;;2.17;1.08;;;;;;;2.93;100.00;99619.88;5007079;28;20218;-68
2023/03/26 05:23:33;;;;;;;1.45;0.95;;;;;;;2.73;100.00;99622.19;5041691;28;20040;-68
2023/03/26 05:25:59;;;;;;;2.75;1.13;;;;;;;3.00;100.00;99631.44;5027812;28;20054;-68
2023/03/26 05:28:27;;;;;;;2.35;1.00;;;;;;;2.95;100.00;99625.84;5031727;28;20079;-68
2023/03/26 05:30:53;;;;;;;1.83;0.90;;;;;;;3.03;100.00;99631.09;5018089;28;20702;-68
2023/03/26 05:33:19;;;;;;;1.40;1.08;;;;;;;3.04;100.00;99627.41;5017185;28;20587;-68
2023/03/26 05:35:45;;;;;;;1.70;0.98;;;;;;;2.80;100.00;99642.56;5008566;28;20037;-68
2023/03/26 05:38:10;;;;;;;2.95;0.98;;;;;;;2.58;100.00;99612.34;5060527;28;20099;-68
2023/03/26 05:40:36;;;;;;;0.98;0.90;;;;;;;2.86;100.00;99641.03;5042931;28;20112;-69
2023/03/26 05:43:02;;;;;;;1.70;1.00;;;;;;;2.83;100.00;99642.19;5041193;28;20044;-67
2023/03/26 05:45:27;;;;;;;1.55;1.08;;;;;;;2.98;100.00;99658.22;5041824;28;20037;-67
2023/03/26 05:47:54;;;;;;;2.80;1.20;;;;;;;2.94;100.00;99650.75;5042191;28;20087;-67
2023/03/26 05:50:20;;;;;;;1.88;0.90;;;;;;;2.89;100.00;99634.53;5042045;28;20387;-66
2023/03/26 05:52:45;;;;;;;1.85;1.05;;;;;;;3.02;100.00;99661.34;5059151;28;20025;-68
2023/03/26 05:55:12;;;;;;;1.48;0.93;;;;;;;2.78;100.00;99676.44;5043728;28;20116;-67
2023/03/26 05:57:37;;;;;;;3.72;0.93;;;;;;;2.91;100.00;99683.00;5060439;28;20103;-67
2023/03/26 06:00:09;;;;;;;2.05;1.10;;;;;;;2.90;100.00;99668.06;5061646;28;20127;-66
2023/03/26 06:02:35;;;;;;;2.13;1.13;;;;;;;2.71;100.00;99680.78;5041128;28;20446;-70
2023/03/26 06:05:01;;;;;;;2.38;0.93;;;;;;;2.64;100.00;99681.69;5060893;28;20090;-67
2023/03/26 06:07:27;;;;;;;2.10;1.00;;;;;;;2.43;100.00;99677.81;5042162;28;20033;-68
2023/03/26 06:09:53;;;;;;;3.20;1.17;;;;;;;2.02;100.00;99619.63;5058679;28;20411;-67
2023/03/26 06:12:18;;;;;;;1.95;0.90;;;;;;;2.59;100.00;99698.16;5042531;28;20037;-68
2023/03/26 06:14:44;;;;;;;3.08;0.90;;;;;;;2.52;100.00;99682.09;5041780;28;20036;-72
2023/03/26 06:17:10;;;;;;;2.75;0.88;;;;;;;2.78;100.00;99713.66;5025389;28;20124;-67
2023/03/26 06:19:38;;;;;;;3.17;1.00;;;;;;;2.54;100.00;99716.41;5041819;28;20033;-67
2023/03/26 06:22:04;;;;;;;2.22;1.15;;;;;;;2.49;100.00;99718.78;5040854;28;20398;-67
2023/03/26 06:24:29;;;;;;;1.67;1.00;;;;;;;2.45;100.00;99717.44;5058613;28;20041;-68
2023/03/26 06:26:55;;;;;;;1.98;1.00;;;;;;;2.45;100.00;99734.25;5023520;28;20029;-68
2023/03/26 06:29:21;;;;;;;3.53;1.40;;;;;;;2.31;100.00;99711.88;5025576;28;20057;-68
2023/03/26 06:31:47;;;;;;;3.45;1.10;;;;;;;2.20;100.00;99741.47;5040529;28;20039;-67
2023/03/26 06:34:12;;;;;;;2.03;1.10;;;;;;;2.33;100.00;99727.66;5019514;28;20097;-68
2023/03/26 06:36:38;;;;;;;2.83;1.00;;;;;;;2.23;100.00;99709.28;5029435;28;20113;-68
2023/03/26 06:39:04;;;;;;;2.22;1.00;;;;;;;2.26;100.00;99740.78;5029675;28;20059;-69
2023/03/26 06:41:33;;;;;;;2.67;0.82;;;;;;;2.08;100.00;99748.13;5036849;28;20030;-66
2023/03/26 06:43:58;;;;;;;2.78;1.02;;;;;;;2.20;100.00;99728.19;5051133;28;20040;-69
2023/03/26 06:46:24;;;;;;;1.95;1.00;;;;;;;2.04;100.00;99733.53;5051268;28;20097;-68
2023/03/26 06:48:50;;;;;;;1.90;1.20;;;;;;;1.85;100.00;99718.81;5031835;28;20029;-69
2023/03/26 06:51:16;;;;;;;2.28;1.10;;;;;;;2.31;100.00;99735.75;5027564;28;20503;-67
2023/03/26 06:53:41;;;;;;;2.55;1.05;;;;;;;2.07;100.00;99735.84;5036717;28;20049;-66
2023/03/26 06:56:07;;;;;;;3.28;1.20;;;;;;;2.23;100.00;99741.13;5036456;28;20040;-67
2023/03/26 06:58:33;;;;;;;1.67;1.00;;;;;;;2.07;100.00;99743.81;5011383;28;20025;-67
2023/03/26 07:00:58;;;;;;;2.47;1.20;;;;;;;2.22;100.00;99738.63;5028772;28;20064;-67
2023/03/26 07:03:23;;;;;;;3.75;1.55;;;;;;;2.27;100.00;99753.03;5029629;28;20021;-67
2023/03/26 07:05:49;;;;;;;2.90;0.85;;;;;;;2.14;100.00;99752.75;5030374;28;20020;-70
2023/03/26 07:08:14;;;;;;;2.53;1.23;;;;;;;2.06;100.00;99729.72;5048325;28;20053;-67
2023/03/26 07:10:40;;;;;;;2.53;1.10;;;;;;;2.17;100.00;99754.25;5052490;28;20020;-67
2023/03/26 07:13:06;;;;;;;2.42;1.20;;;;;;;2.29;100.00;99752.88;5039665;28;20032;-67
2023/03/26 07:15:31;;;;;;;1.90;1.10;;;;;;;2.28;100.00;99760.00;5057282;28;20025;-67
2023/03/26 07:17:57;;;;;;;2.22;1.10;;;;;;;2.56;100.00;99756.91;5040339;28;20041;-67
2023/03/26 07:20:23;;;;;;;3.45;1.20;;;;;;;2.35;100.00;99761.00;5002767;28;20041;-67
2023/03/26 07:22:49;;;;;;;1.92;0.95;;;;;;;2.48;100.00;99776.34;5036111;28;20021;-67
2023/03/26 07:25:15;;;;;;;1.67;1.10;;;;;;;2.34;100.00;99766.44;5038683;28;20091;-67
2023/03/26 07:27:52;;;;;;;2.47;1.00;;;;;;;2.35;100.00;99771.59;5034240;28;20041;-66
2023/03/26 07:30:52;;;;;;;2.40;0.77;;;;;;;2.70;100.00;99769.47;5061167;28;20044;-67
2023/03/26 07:33:36;;;;;;;2.90;1.00;;;;;;;2.58;100.00;99770.84;5053404;28;20407;-67
2023/03/26 07:36:16;;;;;;;2.35;1.08;;;;;;;2.69;100.00;99743.91;5056447;28;20087;-68
2023/03/26 07:38:54;;;;;;;1.50;0.90;;;;;;;2.63;100.00;99760.53;5061444;28;20171;-67
2023/03/26 07:41:49;;;;;;;2.58;1.00;;;;;;;2.57;100.00;99756.72;5027035;28;20025;-68
2023/03/26 07:44:21;;;;;;;1.08;0.68;;;;;;;2.45;100.00;99773.22;5050766;28;20028;-66
2023/03/26 07:46:48;;;;;;;2.75;1.02;;;;;;;2.61;100.00;99777.63;5061522;28;20139;-66
2023/03/26 07:49:13;;;;;;;1.55;1.02;;;;;;;2.68;99.71;99775.94;5072419;28;20035;-67
2023/03/26 07:51:39;;;;;;;2.45;1.02;;;;;;;2.60;100.00;99768.84;5048148;28;20034;-68
2023/03/26 07:54:05;;;;;;;1.98;1.27;;;;;;;2.75;100.00;99761.81;5038865;28;20479;-67
2023/03/26 07:56:41;;;;;;;2.38;1.10;;;;;;;2.39;100.00;99753.50;5064310;28;20037;-67
2023/03/26 07:59:28;;;;;;;1.42;0.70;;;;;;;2.42;100.00;99778.84;5053756;28;20031;-66
2023/03/26 08:02:12;;;;;;;0.70;0.68;;;;;;;2.41;100.00;99774.56;5053782;28;20048;-68
2023/03/26 08:05:02;;;;;;;2.00;1.17;;;;;;;2.03;100.00;99777.00;5071125;28;20036;-68
2023/03/26 08:07:55;;;;;;;2.35;1.00;;;;;;;2.15;100.00;99790.72;5050745;28;20463;-68
2023/03/26 08:10:32;;;;;;;1.92;1.00;;;;;;;2.43;98.80;99783.19;5066456;28;20090;-68
2023/03/26 08:13:33;;;;;;;2.20;0.95;;;;;;;2.46;98.71;99769.56;5048881;28;20119;-68
2023/03/26 08:16:41;;;;;;;1.65;0.90;;;;;;;2.20;97.95;99786.56;5074714;28;20040;-68
2023/03/26 08:19:31;;;;;;;1.08;0.85;;;;;;;2.50;97.69;99778.84;5080310;28;20040;-68
2023/03/26 08:22:06;;;;;;;0.90;0.70;;;;;;;2.56;96.75;99778.16;5055060;28;20020;-68
2023/03/26 08:24:37;;;;;;;1.33;0.80;;;;;;;2.42;96.20;99794.78;5045452;28;20056;-68
2023/03/26 08:27:26;;;;;;;1.73;0.90;;;;;;;2.51;96.91;99791.94;5059933;28;20143;-68
2023/03/26 08:30:15;;;;;;;2.58;0.85;;;;;;;2.65;95.97;99801.03;5069616;28;20072;-68
2023/03/26 08:32:41;;;;;;;1.92;0.68;;;;;;;2.45;95.51;99805.94;5049793;28;20048;-68
2023/03/26 08:35:10;;;;;;;1.55;0.82;;;;;;;2.32;95.93;99810.94;5060556;28;20024;-68
2023/03/26 08:37:35;;;;;;;1.25;0.80;;;;;;;2.79;94.41;99818.91;5050405;28;20032;-68
2023/03/26 08:40:02;;;;;;;0.90;0.77;;;;;;;2.73;93.94;99821.41;5073320;28;20391;-68
2023/03/26 08:43:02;;;;;;;1.30;0.73;;;;;;;3.00;93.07;99823.59;5057455;28;20123;-69
2023/03/26 08:45:50;;;;;;;1.35;0.73;;;;;;;2.82;91.92;99831.00;5032496;28;20028;-68
2023/03/26 08:48:54;;;;;;;2.20;0.60;;;;;;;2.87;92.93;99819.84;5052180;28;20116;-68
2023/03/26 08:51:36;;;;;;;0.85;0.52;;;;;;;2.77;92.71;99833.34;5029091;28;20028;-69
2023/03/26 08:54:14;;;;;;;0.70;0.50;;;;;;;2.94;92.78;99834.91;5072482;28;20036;-68
2023/03/26 08:57:10;;;;;;;1.10;0.65;;;;;;;2.70;90.81;99837.69;5062147;28;20055;-67
2023/03/26 09:00:05;;;;;;;1.23;0.80;;;;;;;3.00;91.90;99844.03;5052150;28;20502;-68
2023/03/26 09:02:55;;;;;;;1.55;0.88;;;;;;;2.98;91.45;99843.38;5037634;28;20061;-67
2023/03/26 09:05:39;;;;;;;0.90;0.60;;;;;;;2.91;90.73;99842.41;5039641;28;20139;-66
2023/03/26 09:08:28;;;;;;;0.82;0.50;;;;;;;3.04;90.51;99855.97;5061105;28;20031;-66
2023/03/26 09:11:22;;;;;;;1.90;0.73;;;;;;;3.35;88.61;99852.50;5064742;28;20033;-66
2023/03/26 09:14:21;;;;;;;1.15;0.60;;;;;;;3.65;87.80;99848.13;5075432;28;20080;-67
2023/03/26 09:16:46;;;;;;;1.10;0.50;;;;;;;3.16;87.29;99870.53;5071411;28;20035;-68
2023/03/26 09:19:49;;;;;;;0.95;0.60;;;;;;;3.37;87.67;99861.94;5048662;28;20096;-67
2023/03/26 09:22:41;;;;;;;1.95;0.60;;;;;;;3.08;87.94;99869.72;5063580;28;20116;-67
2023/03/26 09:25:24;;;;;;;0.70;0.47;;;;;;;3.34;86.94;99880.91;5081321;28;20055;-67
2023/03/26 09:28:25;;;;;;;0.63;0.40;;;;;;;3.36;87.11;99886.06;5077156;28;20055;-67
2023/03/26 09:30:56;;;;;;;0.80;0.50;;;;;;;3.19;86.92;99896.78;4983508;28;20030;-68
2023/03/26 09:33:51;;;;;;;1.45;0.50;;;;;;;3.47;86.49;99889.13;5033109;28;20032;-68
2023/03/26 09:36:35;;;;;;;0.80;0.50;;;;;;;3.48;85.80;99893.47;5043128;28;20645;-67
2023/03/26 09:39:30;;;;;;;1.23;0.70;;;;;;;3.59;86.48;99902.03;5042323;28;20112;-67
2023/03/26 09:42:16;;;;;;;0.57;0.50;;;;;;;3.69;84.81;99884.84;5051553;28;20562;-67
2023/03/26 09:44:51;;;;;;;0.65;0.57;;;;;;;3.49;84.91;99886.31;5034040;28;20017;-67
2023/03/26 09:47:22;;;;;;;0.80;0.55;;;;;;;3.94;85.38;99895.28;5053725;28;20025;-67
2023/03/26 09:50:18;;;;;;;1.77;0.60;;;;;;;3.68;84.71;99869.91;5056609;28;20416;-68
2023/03/26 09:52:48;;;;;;;1.23;0.40;;;;;;;3.34;84.02;99906.66;5059600;28;20139;-68
2023/03/26 09:55:26;;;;;;;0.90;0.50;;;;;;;3.45;84.99;99900.97;5040962;28;20036;-68
2023/03/26 09:58:12;;;;;;;1.35;0.60;;;;;;;3.50;84.01;99895.94;5058574;28;20025;-67
2023/03/26 10:01:04;;;;;;;1.65;0.52;;;;;;;3.60;85.42;99903.69;5027544;28;20069;-68
2023/03/26 10:03:46;;;;;;;1.40;0.50;;;;;;;3.39;84.22;99912.31;5036077;28;20066;-68
2023/03/26 10:06:17;;;;;;;1.27;0.68;;;;;;;3.70;84.79;99904.28;5040847;28;20543;-67
2023/03/26 10:09:09;;;;;;;0.93;0.55;;;;;;;3.95;84.22;99904.97;5060959;28;20413;-68
2023/03/26 10:11:43;;;;;;;2.63;0.60;;;;;;;3.74;82.67;99901.13;5054189;28;20037;-67
2023/03/26 10:14:16;;;;;;;1.77;0.50;;;;;;;3.82;83.21;99912.69;5042537;28;20067;-69
2023/03/26 10:17:09;;;;;;;1.95;0.40;;;;;;;3.88;80.79;99920.81;5060679;28;20027;-68
2023/03/26 10:19:42;;;;;;;0.60;0.40;;;;;;;3.74;82.55;99918.88;5060254;28;20025;-68
2023/03/26 10:22:34;;;;;;;0.68;0.40;;;;;;;3.71;81.00;99916.59;5060786;28;20120;-68
2023/03/26 10:25:12;;;;;;;1.00;0.38;;;;;;;4.11;81.46;99926.13;5062017;28;20132;-70
2023/03/26 10:27:49;;;;;;;1.00;0.65;;;;;;;4.29;80.90;99930.28;5063286;28;20024;-70
2023/03/26 10:30:31;;;;;;;0.95;0.65;;;;;;;3.89;81.68;99927.78;5044287;28;20036;-69
2023/03/26 10:33:30;;;;;;;1.02;0.40;;;;;;;3.56;82.21;99926.34;5043084;28;20021;-71
2023/03/26 10:36:28;;;;;;;0.85;0.50;;;;;;;3.62;82.13;99934.44;5044550;28;20033;-69
2023/03/26 10:38:56;;;;;;;1.08;0.60;;;;;;;3.65;82.71;99933.28;5061261;28;20443;-69
2023/03/26 10:41:43;;;;;;;0.95;0.60;;;;;;;3.32;82.07;99936.09;5045735;28;20132;-68
2023/03/26 10:44:43;;;;;;;1.42;0.45;;;;;;;3.20;83.27;99930.31;5047210;28;20116;-70
2023/03/26 10:47:18;;;;;;;1.00;0.52;;;;;;;3.31;85.01;99955.69;5058872;28;20028;-70
2023/03/26 10:50:01;;;;;;;1.05;0.50;;;;;;;3.33;84.64;99950.22;5073567;28;20029;-71
2023/03/26 10:52:37;;;;;;;1.10;0.55;;;;;;;3.19;84.80;99939.31;5063708;28;20151;-69
2023/03/26 10:55:25;;;;;;;2.38;0.70;;;;;;;2.78;85.63;99952.75;5038311;28;20124;-68
2023/03/26 10:58:13;;;;;;;0.80;0.40;;;;;;;2.97;86.48;99961.31;5055407;28;20021;-69
2023/03/26 11:00:45;;;;;;;1.70;0.70;;;;;;;3.09;86.15;99962.59;5030398;28;20037;-69
2023/03/26 11:03:32;;;;;;;2.42;0.63;;;;;;;2.74;88.65;99982.44;5059800;28;20044;-67
2023/03/26 11:06:30;;;;;;;1.10;0.57;;;;;;;2.73;88.74;99971.00;5059621;28;20031;-68
2023/03/26 11:09:16;;;;;;;0.70;0.50;;;;;;;2.91;88.64;99975.28;5028575;28;20083;-69
2023/03/26 11:12:09;;;;;;;1.45;0.60;;;;;;;2.59;87.82;99979.66;5059624;28;20428;-69
2023/03/26 11:15:21;;;;;;;1.92;0.60;;;;;;;2.79;86.86;99983.59;5040983;28;20032;-69
2023/03/26 11:18:24;;;;;;;0.93;0.47;;;;;;;2.71;85.52;99972.97;5035716;28;20033;-68
2023/03/26 11:20:55;;;;;;;0.98;0.50;;;;;;;2.71;86.25;99985.44;5059677;28;20036;-67
2023/03/26 11:23:38;;;;;;;0.98;0.40;;;;;;;2.85;87.29;99990.09;5059912;28;20037;-69
2023/03/26 11:26:13;;;;;;;1.42;0.52;;;;;;;2.85;86.82;99981.25;5041786;28;20480;-69
2023/03/26 11:28:53;;;;;;;;;;;;;;;3.18;85.91;100001.47;5060426;28;20036;-68
2023/03/26 11:31:41;;;;;;;1.60;0.50;;;;;;;2.80;83.97;100009.16;5060549;28;19921;-69
2023/03/26 11:34:15;;;;;;;2.47;0.60;;;;;;;3.23;85.39;99999.09;5031586;28;20128;-67
2023/03/26 11:36:46;;;;;;;0.60;0.30;;;;;;;3.05;85.39;99980.72;5030453;28;20017;-67
2023/03/26 11:39:20;;;;;;;1.00;0.55;;;;;;;3.27;85.21;100003.06;5060938;28;20102;-67
2023/03/26 11:41:48;;;;;;;1.02;0.50;;;;;;;3.20;84.96;99994.13;5066961;28;20065;-67
2023/03/26 11:44:25;;;;;;;0.77;0.52;;;;;;;3.17;83.83;100002.44;5064393;28;20082;-67
2023/03/26 11:46:57;;;;;;;1.30;0.60;;;;;;;3.40;84.38;100001.69;5070613;28;20009;-66
2023/03/26 11:49:25;;;;;;;2.45;0.75;;;;;;;3.24;85.07;100003.41;5073201;28;20029;-66
2023/03/26 11:51:50;;;;;;;1.33;0.60;;;;;;;3.10;85.57;99993.50;5043749;28;20032;-66
2023/03/26 11:54:16;;;;;;;1.13;0.60;;;;;;;3.07;85.62;100009.78;5058788;28;20036;-68
2023/03/26 11:56:54;;;;;;;2.55;0.77;;;;;;;3.00;85.82;100019.44;5061165;28;20024;-67
2023/03/26 11:59:31;;;;;;;1.45;0.70;;;;;;;2.70;86.23;100051.03;5080769;28;20391;-67
2023/03/26 12:02:08;;;;;;;0.70;0.50;;;;;;;2.50;88.31;100031.09;5080596;28;20513;-68
2023/03/26 12:04:35;;;;;;;1.38;0.70;;;;;;;2.81;87.79;100044.53;5063350;28;20025;-67